Time;durP1;ratioP1;P1;durP2;ratioP2;P2;SDS_P1;SDS_P2;PMS_P1;PMS_P2;Temp;Humidity;BMP_temperature;BMP_pressure;BME280_temperature;BME280_humidity;BME280_pressure;Samples;Min_cycle;Max_cycle;Signal;HPM_P1;HPM_P2
2023/12/14 00:00:44;;;;;;;5.88;3.28;;;;;;;6.66;79.97;97537.09;5020551;27;103064;-72
2023/12/14 00:03:15;;;;;;;4.93;2.78;;;;;;;6.63;79.85;97540.09;5030717;27;104130;-72
2023/12/14 00:05:43;;;;;;;4.45;2.83;;;;;;;6.65;80.37;97543.34;5027176;27;104093;-71
2023/12/14 00:08:12;;;;;;;4.32;2.28;;;;;;;6.68;80.39;97544.81;5042353;27;102652;-71
2023/12/14 00:10:40;;;;;;;3.58;2.10;;;;;;;6.71;80.02;97547.94;5036214;27;102648;-72
2023/12/14 00:13:11;;;;;;;4.45;2.75;;;;;;;6.67;80.24;97551.91;5020001;27;104413;-72
2023/12/14 00:15:39;;;;;;;6.82;3.10;;;;;;;6.70;80.47;97551.56;5034855;27;103212;-72
2023/12/14 00:18:09;;;;;;;3.58;2.30;;;;;;;6.71;80.01;97547.13;5038250;27;102558;-71
2023/12/14 00:20:37;;;;;;;6.07;3.25;;;;;;;6.73;80.57;97561.72;5021377;27;104182;-72
2023/12/14 00:23:05;;;;;;;5.30;3.03;;;;;;;6.73;80.73;97556.47;5019878;27;104486;-72
2023/12/14 00:25:34;;;;;;;4.60;2.78;;;;;;;6.76;79.96;97566.66;5043974;27;103223;-72
2023/12/14 00:28:02;;;;;;;4.28;2.63;;;;;;;6.75;80.33;97565.00;5022589;27;102731;-72
2023/12/14 00:30:30;;;;;;;4.38;2.58;;;;;;;6.77;80.25;97572.72;5019591;27;102886;-72
2023/12/14 00:32:59;;;;;;;4.15;2.17;;;;;;;6.77;80.34;97565.69;5036646;27;103017;-72
2023/12/14 00:35:31;;;;;;;3.50;2.30;;;;;;;6.79;80.20;97561.03;5016339;27;102982;-73
2023/12/14 00:38:00;;;;;;;4.35;2.40;;;;;;;6.79;80.10;97568.94;5037610;27;102682;-73
2023/12/14 00:40:28;;;;;;;4.05;2.50;;;;;;;6.77;79.54;97578.00;5022593;27;103038;-73
2023/12/14 00:42:56;;;;;;;4.05;2.33;;;;;;;6.76;80.07;97574.56;5036852;27;104285;-72
2023/12/14 00:45:25;;;;;;;3.72;2.33;;;;;;;6.75;79.88;97588.69;5036956;27;103370;-73
2023/12/14 00:47:53;;;;;;;3.58;2.38;;;;;;;6.74;80.04;97589.69;5037735;27;102952;-73
2023/12/14 00:50:21;;;;;;;3.35;2.20;;;;;;;6.76;80.55;97592.97;5018454;27;103793;-73
2023/12/14 00:52:51;;;;;;;3.70;2.45;;;;;;;6.78;80.72;97590.16;5039338;27;104133;-72
2023/12/14 00:55:21;;;;;;;3.67;2.10;;;;;;;6.80;80.45;97596.91;5034184;27;103220;-73
2023/12/14 00:57:52;;;;;;;3.50;2.15;;;;;;;6.83;80.26;97594.94;5035954;27;104277;-73
2023/12/14 01:00:20;;;;;;;4.13;2.25;;;;;;;6.85;80.42;97600.81;5037324;27;102617;-72
2023/12/14 01:02:48;;;;;;;4.40;2.58;;;;;;;6.84;80.59;97605.28;5017893;27;103974;-72
2023/12/14 01:05:17;;;;;;;5.97;2.97;;;;;;;6.84;80.13;97609.72;5007926;28;103185;-73
2023/12/14 01:07:45;;;;;;;4.68;2.60;;;;;;;6.86;79.80;97613.81;5031044;27;102939;-72
2023/12/14 01:10:15;;;;;;;4.28;2.45;;;;;;;6.87;79.92;97618.09;5018943;27;102753;-72
2023/12/14 01:12:43;;;;;;;4.68;3.00;;;;;;;6.87;80.33;97609.38;5021503;27;103414;-71
2023/12/14 01:15:12;;;;;;;3.78;2.30;;;;;;;6.89;80.13;97623.19;5042894;27;102609;-72
2023/12/14 01:17:40;;;;;;;5.30;2.85;;;;;;;6.89;79.98;97620.53;5039808;27;103156;-73
2023/12/14 01:20:09;;;;;;;5.88;3.17;;;;;;;6.84;80.26;97631.59;5036041;27;104167;-72
2023/12/14 01:22:37;;;;;;;3.70;2.30;;;;;;;6.80;79.63;97636.38;5020936;27;104162;-72
2023/12/14 01:25:09;;;;;;;3.50;2.28;;;;;;;6.82;79.57;97643.28;5019707;27;104659;-73
2023/12/14 01:27:38;;;;;;;3.28;2.25;;;;;;;6.80;79.64;97641.66;5021081;27;102693;-72
2023/12/14 01:30:08;;;;;;;3.38;2.00;;;;;;;6.79;80.17;97655.78;5037621;27;103690;-73
2023/12/14 01:32:36;;;;;;;3.40;2.30;;;;;;;6.82;80.23;97653.81;5047421;27;103297;-72
2023/12/14 01:35:05;;;;;;;3.35;2.10;;;;;;;6.78;79.77;97654.13;5015450;27;104242;-72
2023/12/14 01:37:33;;;;;;;3.17;2.00;;;;;;;6.75;80.08;97654.50;5036110;27;102719;-74
2023/12/14 01:40:02;;;;;;;3.90;2.00;;;;;;;6.78;79.78;97663.84;5037839;27;103873;-72
2023/12/14 01:42:30;;;;;;;3.42;1.95;;;;;;;6.74;79.99;97666.00;5040420;27;102984;-73
2023/12/14 01:45:00;;;;;;;3.90;1.92;;;;;;;6.77;80.17;97676.22;5036603;27;103213;-72
2023/12/14 01:47:28;;;;;;;7.88;2.50;;;;;;;6.70;79.64;97677.84;5031242;27;102965;-72
2023/12/14 01:49:57;;;;;;;5.53;2.75;;;;;;;6.63;80.61;97679.53;5020520;27;102874;-71
2023/12/14 01:52:25;;;;;;;4.57;2.35;;;;;;;6.60;80.31;97682.47;5008379;27;104316;-72
2023/12/14 01:54:55;;;;;;;3.13;2.13;;;;;;;6.61;80.01;97684.94;5026273;27;103360;-72
2023/12/14 01:57:23;;;;;;;3.45;2.13;;;;;;;6.63;79.84;97682.16;5025151;27;102612;-72
2023/12/14 01:59:51;;;;;;;3.70;2.05;;;;;;;6.64;80.58;97686.41;5034805;27;104087;-72
2023/12/14 02:02:21;;;;;;;3.13;2.05;;;;;;;6.68;80.52;97695.63;5012132;27;104260;-73
2023/12/14 02:04:49;;;;;;;2.55;1.80;;;;;;;6.69;80.37;97697.25;5028428;27;103425;-72
2023/12/14 02:07:17;;;;;;;3.28;2.20;;;;;;;6.73;80.59;97700.38;5019769;27;102660;-73
2023/12/14 02:09:50;;;;;;;4.47;2.83;;;;;;;6.64;80.15;97702.19;5036054;27;103905;-73
2023/12/14 02:12:19;;;;;;;5.40;2.40;;;;;;;6.43;81.09;97700.94;5035478;27;103112;-72
2023/12/14 02:14:49;;;;;;;4.18;2.90;;;;;;;6.49;80.92;97701.25;5034772;27;104756;-72
2023/12/14 02:17:17;;;;;;;4.70;2.35;;;;;;;6.49;80.91;97709.16;5020195;27;103558;-73
2023/12/14 02:19:47;;;;;;;4.00;2.28;;;;;;;6.54;80.61;97714.75;5029676;27;104242;-73
2023/12/14 02:22:17;;;;;;;3.47;2.13;;;;;;;6.53;81.18;97718.34;5029989;27;103994;-73
2023/12/14 02:24:47;;;;;;;4.07;2.25;;;;;;;6.58;81.56;97726.56;5032795;27;103166;-73
2023/12/14 02:27:15;;;;;;;4.25;2.60;;;;;;;6.61;80.83;97716.50;5032103;27;102791;-73
2023/12/14 02:29:43;;;;;;;3.33;1.92;;;;;;;6.61;81.00;97718.31;5040444;27;103841;-72
2023/12/14 02:32:11;;;;;;;3.78;2.10;;;;;;;6.64;80.84;97725.88;5020314;27;104271;-73
2023/12/14 02:34:40;;;;;;;3.25;2.00;;;;;;;6.66;80.76;97726.53;5023101;27;104159;-73
2023/12/14 02:37:08;;;;;;;3.25;2.08;;;;;;;6.68;80.72;97727.22;5037451;27;103670;-72
2023/12/14 02:39:36;;;;;;;3.20;2.10;;;;;;;6.67;80.33;97728.19;5036652;27;104052;-72
2023/12/14 02:42:05;;;;;;;3.15;2.00;;;;;;;6.66;80.84;97729.19;5041101;27;104253;-73
2023/12/14 02:44:33;;;;;;;3.55;2.13;;;;;;;6.63;80.76;97734.78;5036458;27;103488;-73
2023/12/14 02:47:02;;;;;;;7.95;2.50;;;;;;;6.61;80.37;97736.75;5036268;27;102744;-73
2023/12/14 02:49:30;;;;;;;2.80;1.90;;;;;;;6.59;81.25;97743.97;5039230;27;104247;-74
2023/12/14 02:51:58;;;;;;;3.35;2.13;;;;;;;6.57;81.36;97741.50;5035181;27;103419;-73
2023/12/14 02:54:26;;;;;;;3.42;2.22;;;;;;;6.61;80.93;97745.44;5012774;27;103931;-73
2023/12/14 02:56:56;;;;;;;2.90;1.70;;;;;;;6.63;81.07;97732.16;5015830;27;102750;-72
2023/12/14 02:59:25;;;;;;;3.28;1.75;;;;;;;6.66;80.52;97744.97;5018134;27;104377;-74
2023/12/14 03:01:53;;;;;;;4.47;2.53;;;;;;;6.66;80.43;97744.97;5011028;27;104387;-73
2023/12/14 03:04:22;;;;;;;3.85;2.20;;;;;;;6.68;80.46;97753.53;5015281;27;103037;-74
2023/12/14 03:06:50;;;;;;;3.50;2.20;;;;;;;6.67;80.78;97749.25;5029595;27;103577;-72
2023/12/14 03:09:19;;;;;;;2.90;2.00;;;;;;;6.69;80.80;97755.16;5021308;27;103820;-72
2023/12/14 03:11:47;;;;;;;2.63;1.73;;;;;;;6.71;81.03;97762.91;5036134;27;103852;-72
2023/12/14 03:14:15;;;;;;;2.53;1.70;;;;;;;6.71;80.86;97761.09;5024070;27;103869;-73
2023/12/14 03:16:45;;;;;;;3.58;1.73;;;;;;;6.73;80.58;97756.44;5009697;27;102778;-72
2023/12/14 03:19:13;;;;;;;3.92;2.40;;;;;;;6.70;80.43;97772.59;5008327;27;104001;-72
2023/12/14 03:21:41;;;;;;;3.22;1.90;;;;;;;6.72;80.94;97772.41;5038554;27;103275;-73
2023/12/14 03:24:09;;;;;;;2.65;1.92;;;;;;;6.72;81.01;97773.25;5037121;27;103235;-74
2023/12/14 03:26:39;;;;;;;4.75;2.67;;;;;;;6.75;80.69;97780.00;5031446;27;102783;-73
2023/12/14 03:29:08;;;;;;;3.80;2.20;;;;;;;6.74;80.08;97784.41;5032534;27;104014;-72
2023/12/14 03:31:36;;;;;;;4.40;2.45;;;;;;;6.77;80.59;97794.63;5035397;27;104453;-73
2023/12/14 03:34:05;;;;;;;3.33;1.90;;;;;;;6.78;80.70;97790.19;5037210;27;103329;-72
2023/12/14 03:36:34;;;;;;;4.15;2.30;;;;;;;6.78;80.14;97792.81;5043993;27;104079;-74
2023/12/14 03:39:02;;;;;;;6.03;2.00;;;;;;;6.78;80.52;97796.25;5033955;27;104029;-73
2023/12/14 03:41:33;;;;;;;2.92;1.98;;;;;;;6.73;79.88;97808.28;5033291;27;105428;-73
2023/12/14 03:44:01;;;;;;;3.45;1.95;;;;;;;6.76;80.56;97811.41;5037194;27;103066;-73
2023/12/14 03:46:29;;;;;;;3.10;1.88;;;;;;;6.72;80.40;97812.72;5026419;27;103146;-73
2023/12/14 03:48:57;;;;;;;3.85;2.33;;;;;;;6.75;80.83;97817.66;5034562;27;102760;-73
2023/12/14 03:51:27;;;;;;;3.10;2.08;;;;;;;6.73;79.98;97819.63;5017929;27;104159;-73
2023/12/14 03:53:55;;;;;;;2.90;1.90;;;;;;;6.70;80.04;97825.22;5013882;27;104282;-74
2023/12/14 03:56:23;;;;;;;3.85;2.20;;;;;;;6.71;80.25;97824.22;5028589;27;102559;-73
2023/12/14 03:58:52;;;;;;;3.97;2.10;;;;;;;6.68;80.86;97835.09;5019991;27;104444;-73
2023/12/14 04:01:23;;;;;;;2.90;2.00;;;;;;;6.68;80.56;97829.00;5015339;27;103279;-73
2023/12/14 04:03:51;;;;;;;3.35;1.98;;;;;;;6.69;80.64;97836.72;5035201;27;103226;-73
2023/12/14 04:06:19;;;;;;;3.55;2.13;;;;;;;6.69;80.42;97844.63;5031747;27;102732;-75
2023/12/14 04:08:50;;;;;;;2.55;1.83;;;;;;;6.72;80.32;97844.31;5039276;27;104419;-77
2023/12/14 04:11:33;;;;;;;2.55;1.60;;;;;;;6.71;79.94;97847.91;5007930;27;103250;-78
2023/12/14 04:14:02;;;;;;;4.18;2.20;;;;;;;6.71;79.94;97855.81;5040306;27;103272;-76
2023/12/14 04:16:30;;;;;;;4.05;2.55;;;;;;;6.69;80.31;97870.13;5040283;27;102595;-77
2023/12/14 04:18:58;;;;;;;3.42;1.80;;;;;;;6.64;80.01;97875.84;5017002;27;104192;-77
2023/12/14 04:21:26;;;;;;;2.63;1.75;;;;;;;6.66;80.69;97876.53;5013787;27;103938;-77
2023/12/14 04:23:56;;;;;;;2.90;1.70;;;;;;;6.64;80.49;97878.50;5039775;27;103289;-77
2023/12/14 04:26:24;;;;;;;3.22;2.03;;;;;;;6.64;80.57;97878.50;5037521;27;102609;-78
2023/12/14 04:28:52;;;;;;;3.40;2.38;;;;;;;6.61;80.42;97881.47;5022784;27;104513;-77
2023/12/14 04:31:21;;;;;;;3.53;2.40;;;;;;;6.51;80.70;97888.69;5016542;27;104658;-77
2023/12/14 04:33:49;;;;;;;4.13;2.60;;;;;;;6.47;80.88;97889.00;5021303;27;104289;-76
2023/12/14 04:36:19;;;;;;;4.07;2.67;;;;;;;6.42;80.93;97893.94;5020020;27;102714;-77
2023/12/14 04:38:47;;;;;;;2.70;1.90;;;;;;;6.44;80.98;97905.09;5012208;27;102679;-78
2023/12/14 04:41:17;;;;;;;2.67;2.03;;;;;;;6.50;81.05;97902.81;5036434;27;103781;-77
2023/12/14 04:43:46;;;;;;;2.95;1.90;;;;;;;6.54;80.87;97907.59;5022612;27;104261;-77
2023/12/14 04:46:14;;;;;;;2.90;1.80;;;;;;;6.51;80.77;97909.72;5018316;27;102974;-78
2023/12/14 04:48:43;;;;;;;3.10;2.05;;;;;;;6.54;80.42;97910.22;5023733;27;104165;-77
2023/12/14 04:51:14;;;;;;;5.50;2.10;;;;;;;6.56;80.70;97910.06;5042496;27;104405;-76
2023/12/14 04:53:42;;;;;;;2.60;1.60;;;;;;;6.55;80.84;97911.03;5037351;27;103170;-76
2023/12/14 04:56:11;;;;;;;3.42;2.10;;;;;;;6.58;80.57;97911.56;5035987;27;102661;-77
2023/12/14 04:58:41;;;;;;;3.35;2.42;;;;;;;6.54;81.03;97919.94;5019943;27;102751;-60
2023/12/14 05:01:09;;;;;;;3.60;2.30;;;;;;;6.55;80.26;97924.19;5028012;27;103336;-79
2023/12/14 05:03:37;;;;;;;4.80;2.25;;;;;;;6.60;80.65;97929.81;5017534;27;103183;-78
2023/12/14 05:06:07;;;;;;;3.53;1.70;;;;;;;6.61;81.13;97923.56;5043397;27;103134;-80
2023/12/14 05:08:37;;;;;;;2.15;1.73;;;;;;;6.63;80.57;97930.31;5037086;27;102691;-82
2023/12/14 05:11:06;;;;;;;2.45;1.60;;;;;;;6.65;80.97;97940.66;5027087;27;103691;-79
2023/12/14 05:13:35;;;;;;;3.33;2.20;;;;;;;6.65;79.92;97940.66;5035679;27;102600;-79
2023/12/14 05:16:05;;;;;;;3.17;1.65;;;;;;;6.68;80.82;97943.00;5035361;27;102670;-79
2023/12/14 05:18:33;;;;;;;2.97;2.10;;;;;;;6.70;80.46;97948.91;5020608;27;104178;-79
2023/12/14 05:21:01;;;;;;;5.15;2.30;;;;;;;6.69;80.21;97956.97;5028559;27;104453;-78
2023/12/14 05:23:29;;;;;;;3.92;2.58;;;;;;;6.69;80.46;97955.16;5041278;27;103227;-78
2023/12/14 05:25:57;;;;;;;3.03;2.00;;;;;;;6.73;80.62;97961.72;5032149;27;102563;-78
2023/12/14 05:28:25;;;;;;;3.55;2.10;;;;;;;6.72;80.58;97960.09;5019031;27;102723;-79
2023/12/14 05:30:53;;;;;;;2.75;1.80;;;;;;;6.75;80.67;97975.56;5033360;27;103274;-79
2023/12/14 05:33:22;;;;;;;3.67;2.35;;;;;;;6.73;80.09;97987.22;5035509;27;103217;-79
2023/12/14 05:35:50;;;;;;;4.13;2.53;;;;;;;6.73;79.87;97990.66;5016682;27;103026;-78
2023/12/14 05:38:19;;;;;;;6.50;3.10;;;;;;;6.69;80.25;97991.97;5036562;27;104082;-79
2023/12/14 05:40:47;;;;;;;3.70;2.08;;;;;;;6.67;80.90;97993.97;5017125;27;104079;-79
2023/12/14 05:43:15;;;;;;;3.35;2.00;;;;;;;6.69;80.34;97997.25;5036702;27;103201;-79
2023/12/14 05:45:43;;;;;;;2.50;1.80;;;;;;;6.70;81.19;98009.44;5033316;27;102709;-79
2023/12/14 05:48:13;;;;;;;3.72;2.03;;;;;;;6.71;80.44;98011.09;5035031;27;102847;-78
2023/12/14 05:50:43;;;;;;;3.50;2.00;;;;;;;6.74;80.75;98021.28;5009690;27;104147;-79
2023/12/14 05:53:11;;;;;;;5.20;2.65;;;;;;;6.76;80.67;98015.84;5032970;27;102675;-73
2023/12/14 05:55:41;;;;;;;5.03;2.55;;;;;;;6.74;80.23;98010.75;5013213;27;102670;-77
2023/12/14 05:58:09;;;;;;;6.45;3.17;;;;;;;6.70;80.31;98027.03;5017730;27;103764;-77
2023/12/14 06:00:38;;;;;;;3.75;2.40;;;;;;;6.71;80.84;98028.69;5025261;27;103373;-78
2023/12/14 06:03:07;;;;;;;6.35;3.22;;;;;;;6.71;80.42;98023.44;5043274;27;105082;-78
2023/12/14 06:05:35;;;;;;;4.72;2.83;;;;;;;6.73;80.95;98027.53;5042003;27;102620;-78
2023/12/14 06:08:05;;;;;;;4.13;2.83;;;;;;;6.68;80.62;98035.09;5022306;27;102855;-78
2023/12/14 06:10:34;;;;;;;6.53;3.25;;;;;;;6.69;80.17;98033.28;5033281;27;103179;-78
2023/12/14 06:13:02;;;;;;;5.60;3.55;;;;;;;6.73;80.57;98045.13;5041366;27;103354;-79
2023/12/14 06:15:31;;;;;;;5.90;3.25;;;;;;;6.70;80.45;98042.81;5035542;27;102686;-79
2023/12/14 06:17:59;;;;;;;5.28;2.97;;;;;;;6.75;80.77;98048.44;5019594;27;103640;-79
2023/12/14 06:20:27;;;;;;;3.80;2.50;;;;;;;6.76;80.75;98053.53;5035342;27;104225;-79
2023/12/14 06:22:56;;;;;;;5.25;3.30;;;;;;;6.79;80.56;98053.22;5036113;27;103253;-79
2023/12/14 06:25:25;;;;;;;5.15;2.90;;;;;;;6.80;81.00;98060.13;5008116;27;102704;-73
2023/12/14 06:27:55;;;;;;;3.83;2.60;;;;;;;6.78;80.37;98072.59;5025271;27;104137;-73
2023/12/14 06:30:25;;;;;;;3.90;2.42;;;;;;;6.82;80.44;98059.97;5021020;27;103927;-73
2023/12/14 06:32:57;;;;;;;5.80;3.78;;;;;;;6.80;80.61;98065.38;5015396;27;103265;-73
2023/12/14 06:35:25;;;;;;;4.47;3.00;;;;;;;6.70;80.84;98067.31;5013855;27;102691;-73
2023/12/14 06:37:54;;;;;;;6.65;3.70;;;;;;;6.71;81.25;98079.50;5027532;27;103857;-73
2023/12/14 06:40:27;;;;;;;4.50;2.97;;;;;;;6.64;81.72;98083.75;5016752;27;103059;-72
2023/12/14 06:42:56;;;;;;;4.85;2.78;;;;;;;6.67;81.58;98091.34;5021919;27;105542;-74
2023/12/14 06:45:24;;;;;;;4.63;2.80;;;;;;;6.72;81.48;98101.38;5024378;27;102935;-72
2023/12/14 06:47:52;;;;;;;5.15;3.40;;;;;;;6.74;81.87;98097.59;5032302;27;103631;-72
2023/12/14 06:50:21;;;;;;;4.53;3.03;;;;;;;6.72;81.14;98104.00;5017942;27;104023;-73
2023/12/14 06:52:50;;;;;;;10.27;3.60;;;;;;;6.72;81.08;98110.09;5033439;27;103270;-80
2023/12/14 06:55:18;;;;;;;5.53;2.95;;;;;;;6.72;81.07;98118.00;5032041;27;102636;-80
2023/12/14 06:57:48;;;;;;;3.95;2.70;;;;;;;6.76;81.08;98119.34;5038270;27;103983;-80
2023/12/14 07:00:17;;;;;;;7.68;3.97;;;;;;;6.73;81.18;98124.09;5027325;27;103245;-79
2023/12/14 07:02:45;;;;;;;4.63;2.63;;;;;;;6.74;81.20;98126.56;5017215;27;104244;-81
2023/12/14 07:05:13;;;;;;;5.07;2.70;;;;;;;6.75;81.14;98137.91;5034521;27;102636;-72
2023/12/14 07:07:42;;;;;;;6.30;3.92;;;;;;;6.82;80.80;98153.91;5016509;27;104048;-80
2023/12/14 07:10:10;;;;;;;4.78;2.83;;;;;;;6.80;81.63;98148.81;5038800;27;104573;-80
2023/12/14 07:12:38;;;;;;;6.03;2.60;;;;;;;6.83;81.19;98153.75;5019224;27;103177;-80
2023/12/14 07:15:12;;;;;;;6.10;2.65;;;;;;;6.86;80.87;98163.13;5019702;27;102951;-80
2023/12/14 07:17:40;;;;;;;4.18;2.70;;;;;;;6.87;81.29;98173.50;5022198;27;103873;-72
2023/12/14 07:20:10;;;;;;;7.00;3.47;;;;;;;6.88;80.95;98179.59;5018111;27;104240;-81
2023/12/14 07:22:38;;;;;;;5.88;3.45;;;;;;;6.90;81.07;98178.44;5039115;27;103271;-73
2023/12/14 07:25:06;;;;;;;5.93;4.05;;;;;;;6.92;81.27;98186.22;5014961;27;102743;-81
2023/12/14 07:27:36;;;;;;;5.10;3.53;;;;;;;6.88;81.51;98190.13;5036478;27;102707;-70
2023/12/14 07:30:05;;;;;;;5.38;2.95;;;;;;;6.85;81.59;98195.69;5034792;27;103305;-71
2023/12/14 07:32:34;;;;;;;8.43;5.45;;;;;;;6.93;81.17;98188.69;5017109;27;103126;-72
2023/12/14 07:35:03;;;;;;;6.93;4.80;;;;;;;6.90;81.16;98198.69;5038890;27;102804;-71
2023/12/14 07:37:33;;;;;;;8.02;4.82;;;;;;;6.90;81.67;98196.06;5017464;27;104789;-71
2023/12/14 07:40:01;;;;;;;5.97;3.90;;;;;;;6.93;81.53;98208.91;5035270;27;103446;-79
2023/12/14 07:42:29;;;;;;;6.45;4.18;;;;;;;6.99;81.13;98204.81;5039493;27;103267;-72
2023/12/14 07:44:59;;;;;;;6.82;4.45;;;;;;;7.00;81.08;98203.84;5041699;27;105112;-79
2023/12/14 07:47:27;;;;;;;5.70;3.85;;;;;;;6.97;81.56;98211.06;5043099;27;103994;-79
2023/12/14 07:49:56;;;;;;;5.93;3.95;;;;;;;7.02;80.92;98218.50;5038679;27;103301;-78
2023/12/14 07:52:24;;;;;;;4.72;3.33;;;;;;;7.01;81.29;98226.53;5038570;27;103301;-72
2023/12/14 07:54:52;;;;;;;8.77;5.22;;;;;;;7.06;81.75;98235.66;5042165;27;102631;-72
2023/12/14 07:57:20;;;;;;;8.32;4.93;;;;;;;7.05;81.28;98236.63;5033555;27;103863;-72
2023/12/14 07:59:48;;;;;;;10.23;6.38;;;;;;;6.93;81.41;98243.13;5040185;27;103291;-71
2023/12/14 08:02:16;;;;;;;9.48;5.47;;;;;;;6.95;82.36;98246.44;5017217;27;103664;-72
2023/12/14 08:04:44;;;;;;;6.03;4.10;;;;;;;6.93;82.59;98251.03;5036731;27;102744;-72
2023/12/14 08:07:14;;;;;;;8.68;4.70;;;;;;;7.04;82.54;98247.31;5036550;27;104135;-71
2023/12/14 08:09:42;;;;;;;7.40;5.47;;;;;;;7.09;81.66;98251.13;5037475;27;103449;-71
2023/12/14 08:12:10;;;;;;;7.47;4.82;;;;;;;7.18;81.59;98257.25;5037579;27;103259;-71
2023/12/14 08:14:41;;;;;;;7.82;5.55;;;;;;;7.28;81.41;98254.50;5037702;27;102678;-71
2023/12/14 08:17:08;;;;;;;9.52;5.65;;;;;;;7.30;81.28;98263.88;5020112;27;103829;-71
2023/12/14 08:19:36;;;;;;;6.85;4.55;;;;;;;7.40;80.84;98269.06;5018401;27;104436;-71
2023/12/14 08:22:04;;;;;;;7.95;5.90;;;;;;;7.47;80.76;98275.31;5052531;27;103203;-71
2023/12/14 08:24:34;;;;;;;7.25;4.72;;;;;;;7.47;80.49;98279.78;5038036;27;102556;-71
2023/12/14 08:27:02;;;;;;;10.10;6.00;;;;;;;7.44;80.10;98286.19;5042182;27;103752;-71
2023/12/14 08:29:29;;;;;;;8.82;5.82;;;;;;;7.47;80.58;98291.13;5040308;27;103321;-71
2023/12/14 08:31:59;;;;;;;7.57;5.05;;;;;;;7.46;80.14;98288.66;5033480;27;103181;-71
2023/12/14 08:34:29;;;;;;;6.15;4.25;;;;;;;7.51;80.81;98296.13;5037501;27;102578;-71
2023/12/14 08:36:57;;;;;;;7.68;5.18;;;;;;;7.54;80.28;98301.06;5020143;27;104005;-71
2023/12/14 08:39:26;;;;;;;7.65;5.15;;;;;;;7.50;80.51;98300.53;5022377;27;104062;-71
2023/12/14 08:41:55;;;;;;;7.78;5.85;;;;;;;7.59;80.49;98314.59;5030307;27;103284;-71
2023/12/14 08:44:23;;;;;;;7.97;5.28;;;;;;;7.64;80.10;98322.84;5032476;27;103156;-71
2023/12/14 08:46:51;;;;;;;8.52;5.70;;;;;;;7.69;80.54;98325.81;5043035;27;103922;-78
2023/12/14 08:49:19;;;;;;;7.53;5.15;;;;;;;7.74;80.22;98328.81;5025155;27;104444;-78
2023/12/14 08:51:47;;;;;;;7.45;4.97;;;;;;;7.78;80.56;98340.69;5042032;27;103278;-71
2023/12/14 08:54:16;;;;;;;9.05;7.05;;;;;;;7.91;80.00;98334.97;5012833;27;103256;-71
2023/12/14 08:56:45;;;;;;;7.53;5.15;;;;;;;7.97;79.55;98338.78;5016874;27;104062;-71
2023/12/14 08:59:15;;;;;;;8.82;6.38;;;;;;;8.06;79.57;98343.09;5016133;27;104287;-71
2023/12/14 09:01:43;;;;;;;8.50;5.70;;;;;;;8.15;78.97;98357.13;5011100;27;104430;-71
2023/12/14 09:04:11;;;;;;;8.60;5.22;;;;;;;8.18;79.10;98362.06;5032020;27;103049;-71
2023/12/14 09:06:42;;;;;;;9.30;6.28;;;;;;;8.10;78.64;98367.34;5035613;27;102695;-71
2023/12/14 09:09:10;;;;;;;9.73;6.25;;;;;;;8.15;79.07;98372.97;5038610;27;104532;-71
2023/12/14 09:11:38;;;;;;;11.63;7.88;;;;;;;8.12;78.34;98378.53;5041137;27;103342;-71
2023/12/14 09:14:06;;;;;;;11.05;6.78;;;;;;;8.20;78.64;98375.94;5020174;27;102981;-70
2023/12/14 09:16:35;;;;;;;9.23;5.95;;;;;;;8.24;78.18;98381.69;5013287;27;103931;-71
2023/12/14 09:19:03;;;;;;;8.63;5.82;;;;;;;8.24;78.67;98376.41;5006272;27;104102;-71
2023/12/14 09:21:31;;;;;;;10.02;5.78;;;;;;;8.26;78.97;98391.09;5031805;27;103076;-71
2023/12/14 09:24:12;;;;;;;13.10;8.05;;;;;;;8.25;77.80;98400.03;5032234;27;102566;-72
2023/12/14 09:26:41;;;;;;;10.02;6.63;;;;;;;8.11;78.81;98404.09;5040203;27;103468;-71
2023/12/14 09:29:09;;;;;;;8.75;5.82;;;;;;;8.17;78.39;98407.91;5010104;27;104194;-72
2023/12/14 09:31:42;;;;;;;11.93;7.45;;;;;;;8.24;78.19;98414.19;5042274;27;102986;-72
2023/12/14 09:34:10;;;;;;;11.18;7.70;;;;;;;8.21;78.84;98425.06;5041206;27;102498;-78
2023/12/14 09:36:39;;;;;;;11.93;7.18;;;;;;;8.33;78.39;98428.22;5029841;27;104292;-78
2023/12/14 09:39:10;;;;;;;8.68;6.03;;;;;;;8.39;78.46;98418.88;5017440;27;104538;-79
2023/12/14 09:41:38;;;;;;;9.40;7.50;;;;;;;8.41;78.11;98423.00;5027324;27;104165;-79
2023/12/14 09:44:08;;;;;;;8.70;6.13;;;;;;;8.43;78.15;98428.91;5042400;27;102573;-79
2023/12/14 09:46:44;;;;;;;9.75;6.70;;;;;;;8.47;78.13;98434.75;5048635;27;102662;-79
2023/12/14 09:49:13;;;;;;;8.07;5.35;;;;;;;8.53;78.11;98431.47;5038268;27;104294;-78
2023/12/14 09:51:42;;;;;;;10.45;7.20;;;;;;;8.67;77.61;98429.19;5020741;27;103196;-78
2023/12/14 09:54:10;;;;;;;11.80;7.93;;;;;;;8.59;76.81;98427.34;5040796;27;103189;-79
2023/12/14 09:56:47;;;;;;;10.35;6.85;;;;;;;8.67;77.22;98435.28;5020340;27;102742;-80
2023/12/14 09:59:15;;;;;;;12.30;7.45;;;;;;;8.73;77.13;98432.00;5017858;27;104263;-79
2023/12/14 10:01:45;;;;;;;8.55;6.03;;;;;;;8.75;77.17;98437.09;5015198;27;103231;-78
2023/12/14 10:04:15;;;;;;;11.15;7.97;;;;;;;8.74;76.73;98440.75;5035241;27;102715;-78
2023/12/14 10:06:44;;;;;;;11.60;7.35;;;;;;;8.69;77.38;98437.78;5021220;27;103938;-77
2023/12/14 10:09:15;;;;;;;10.40;7.30;;;;;;;8.75;77.09;98445.03;5029652;27;104139;-78
2023/12/14 10:11:44;;;;;;;12.18;8.05;;;;;;;8.84;76.83;98453.78;5042107;27;103319;-75
2023/12/14 10:14:24;;;;;;;18.23;8.55;;;;;;;8.83;75.92;98457.41;5040616;27;102615;-78
2023/12/14 10:16:56;;;;;;;11.57;7.65;;;;;;;8.81;77.24;98468.16;5037702;27;102813;-76
2023/12/14 10:19:30;;;;;;;13.07;7.80;;;;;;;8.67;76.85;98471.41;5041206;27;104438;-76
2023/12/14 10:22:01;;;;;;;13.50;7.10;;;;;;;8.72;77.11;98480.50;5050310;27;103293;-76
2023/12/14 10:24:29;;;;;;;11.00;6.85;;;;;;;8.67;77.01;98480.16;5046069;27;102666;-76
2023/12/14 10:26:57;;;;;;;12.80;7.40;;;;;;;8.75;76.45;98484.63;5042861;27;102647;-77
2023/12/14 10:29:25;;;;;;;11.05;7.22;;;;;;;8.60;77.37;98484.44;5040770;27;104291;-78
2023/12/14 10:31:54;;;;;;;12.63;7.82;;;;;;;8.70;77.25;98486.94;5042757;27;103140;-76
2023/12/14 10:34:26;;;;;;;13.93;7.18;;;;;;;8.24;77.06;98497.78;5047197;27;102655;-76
2023/12/14 10:36:54;;;;;;;9.68;6.95;;;;;;;8.21;77.35;98495.47;5040836;27;102734;-76
2023/12/14 10:39:23;;;;;;;9.48;6.65;;;;;;;8.18;77.45;98490.53;5042342;27;103229;-76
2023/12/14 10:41:55;;;;;;;13.90;7.72;;;;;;;8.21;77.67;98503.38;5046273;27;103287;-77
2023/12/14 10:44:38;;;;;;;13.50;7.80;;;;;;;8.29;76.86;98500.78;5027319;27;102655;-77
2023/12/14 10:47:26;;;;;;;11.77;7.00;;;;;;;8.66;76.75;98502.28;5034048;27;103096;-78
2023/12/14 10:50:01;;;;;;;9.07;6.35;;;;;;;8.68;76.44;98507.41;5025024;27;104443;-76
2023/12/14 10:52:33;;;;;;;10.48;6.93;;;;;;;8.51;77.24;98506.53;5020010;27;104281;-76
2023/12/14 10:55:06;;;;;;;10.93;6.13;;;;;;;8.66;77.21;98510.22;5029684;27;102697;-77
2023/12/14 10:57:34;;;;;;;13.70;8.10;;;;;;;8.58;76.68;98511.00;5040606;27;102809;-77
2023/12/14 11:00:07;;;;;;;10.23;6.38;;;;;;;8.48;77.47;98520.03;5021394;27;103247;-76
2023/12/14 11:02:42;;;;;;;10.13;7.25;;;;;;;8.49;77.28;98514.59;5043103;27;103400;-76
2023/12/14 11:05:19;;;;;;;12.27;7.38;;;;;;;8.45;76.62;98516.72;5042574;27;102607;-77
2023/12/14 11:07:49;;;;;;;7.97;5.68;;;;;;;8.56;76.98;98514.78;5022406;27;104122;-76
2023/12/14 11:10:26;;;;;;;10.20;6.13;;;;;;;8.79;76.73;98517.69;5039026;27;103191;-77
2023/12/14 11:13:02;;;;;;;8.43;5.35;;;;;;;8.69;75.69;98512.50;5020484;27;103282;-77
2023/12/14 11:15:30;;;;;;;8.95;6.18;;;;;;;8.54;76.64;98520.22;5015509;27;102597;-77
2023/12/14 11:18:21;;;;;;;9.02;4.65;;;;;;;8.59;76.11;98522.38;5022489;27;104281;-77
2023/12/14 11:21:00;;;;;;;10.07;5.22;;;;;;;8.54;75.83;98522.03;5045659;27;103811;-77
2023/12/14 11:23:36;;;;;;;9.07;5.05;;;;;;;8.37;76.02;98519.31;5037072;27;102979;-79
2023/12/14 11:26:06;;;;;;;8.18;4.80;;;;;;;8.41;76.55;98527.72;5039662;27;103187;-75
2023/12/14 11:28:35;;;;;;;5.90;4.20;;;;;;;8.66;76.79;98525.19;5030273;27;104354;-77
2023/12/14 11:31:06;;;;;;;11.45;5.28;;;;;;;8.40;76.01;98534.81;5022469;27;103257;-77
2023/12/14 11:33:34;;;;;;;10.20;5.60;;;;;;;8.63;76.05;98543.03;5029699;27;103393;-77
2023/12/14 11:36:04;;;;;;;8.63;4.85;;;;;;;8.88;76.21;98542.28;5040985;27;102687;-77
2023/12/14 11:38:35;;;;;;;9.20;5.55;;;;;;;8.77;75.45;98546.84;5013733;27;104647;-77
2023/12/14 11:41:06;;;;;;;8.90;5.13;;;;;;;8.90;75.80;98554.31;5014349;27;103300;-77